createdAt,value
2023-05-09T00:02:01.326Z,78.82
2023-05-09T00:04:29.364Z,78.76
2023-05-09T00:06:57.234Z,78.68
2023-05-09T00:09:25.475Z,78.73
2023-05-09T00:11:53.138Z,78.89
2023-05-09T00:14:20.798Z,79.01
2023-05-09T00:16:48.492Z,79.19
2023-05-09T00:19:16.109Z,79.35
2023-05-09T00:21:43.728Z,79.47
2023-05-09T00:24:11.369Z,79.60
2023-05-09T00:26:39.087Z,79.62
2023-05-09T00:29:06.994Z,79.80
2023-05-09T00:31:34.733Z,79.85
2023-05-09T00:34:02.383Z,79.91
2023-05-09T00:36:32.897Z,79.97
2023-05-09T00:39:00.539Z,80.02
2023-05-09T00:41:28.222Z,80.19
2023-05-09T00:43:55.843Z,80.32
2023-05-09T00:46:24.007Z,80.30
2023-05-09T00:48:52.462Z,80.25
2023-05-09T00:51:21.295Z,80.25
2023-05-09T00:53:49.166Z,80.38
2023-05-09T00:56:17.158Z,80.42
2023-05-09T00:58:45.334Z,80.45
2023-05-09T01:01:12.951Z,80.56
2023-05-09T01:03:41.810Z,80.66
2023-05-09T01:06:38.127Z,80.68
2023-05-09T01:09:28.556Z,80.77
2023-05-09T01:12:22.327Z,80.74
2023-05-09T01:15:15.331Z,80.73
2023-05-09T01:17:58.566Z,80.60
2023-05-09T01:20:35.821Z,80.63
2023-05-09T01:23:16.007Z,80.83
2023-05-09T01:26:02.026Z,80.81
2023-05-09T01:28:35.749Z,81.00
2023-05-09T01:31:05.655Z,81.00
2023-05-09T01:33:36.495Z,80.99
2023-05-09T01:36:08.514Z,81.03
2023-05-09T01:38:38.576Z,81.11
2023-05-09T01:41:09.485Z,81.15
2023-05-09T01:43:38.850Z,81.23
2023-05-09T01:46:08.101Z,81.38
2023-05-09T01:48:37.981Z,81.48
2023-05-09T01:51:07.779Z,81.61
2023-05-09T01:53:36.269Z,81.65
2023-05-09T01:56:05.600Z,81.70
2023-05-09T01:58:34.329Z,81.82
2023-05-09T02:01:03.460Z,81.84
2023-05-09T02:03:33.976Z,82.00
2023-05-09T02:06:03.840Z,82.27
2023-05-09T02:08:32.867Z,82.30
2023-05-09T02:11:00.684Z,82.38
2023-05-09T02:13:28.541Z,82.48
2023-05-09T02:15:57.063Z,82.44
2023-05-09T02:18:24.787Z,82.52
2023-05-09T02:20:52.538Z,82.60
2023-05-09T02:23:20.940Z,82.73
2023-05-09T02:25:48.838Z,82.79
2023-05-09T02:28:19.426Z,82.88
2023-05-09T02:30:49.873Z,82.89
2023-05-09T02:33:18.195Z,82.97
2023-05-09T02:35:46.760Z,83.04
2023-05-09T02:38:15.668Z,83.04
2023-05-09T02:40:44.497Z,83.17
2023-05-09T02:43:12.404Z,83.34
2023-05-09T02:45:40.224Z,83.42
2023-05-09T02:48:09.228Z,83.40
2023-05-09T02:50:42.914Z,83.28
2023-05-09T02:53:10.865Z,83.41
2023-05-09T02:55:38.530Z,83.43
2023-05-09T02:58:14.209Z,83.46
2023-05-09T03:00:43.128Z,83.46
2023-05-09T03:03:11.433Z,83.49
2023-05-09T03:05:39.188Z,83.46
2023-05-09T03:08:06.945Z,83.39
2023-05-09T03:10:34.765Z,83.40
2023-05-09T03:13:02.495Z,83.43
2023-05-09T03:15:30.267Z,83.38
2023-05-09T03:17:58.043Z,83.30
2023-05-09T03:20:27.020Z,83.30
2023-05-09T03:22:54.772Z,83.40
2023-05-09T03:25:22.590Z,83.43
2023-05-09T03:27:50.322Z,83.54
2023-05-09T03:30:18.813Z,83.55
2023-05-09T03:32:46.497Z,83.59
2023-05-09T03:35:14.398Z,83.57
2023-05-09T03:37:42.107Z,83.64
2023-05-09T03:40:10.231Z,83.67
2023-05-09T03:42:37.864Z,83.70
2023-05-09T03:45:05.813Z,83.74
2023-05-09T03:47:33.594Z,83.76
2023-05-09T03:50:01.275Z,83.74
2023-05-09T03:52:29.558Z,83.82
2023-05-09T03:54:57.492Z,83.93
2023-05-09T03:57:25.143Z,83.86
2023-05-09T03:59:52.841Z,83.79
2023-05-09T04:02:20.779Z,83.81
2023-05-09T04:04:49.971Z,83.76
2023-05-09T04:07:17.684Z,83.66
2023-05-09T04:09:45.392Z,83.55
2023-05-09T04:12:13.128Z,83.48
2023-05-09T04:14:40.863Z,83.32
2023-05-09T04:17:08.618Z,83.14
2023-05-09T04:19:36.322Z,82.97
2023-05-09T04:22:03.931Z,82.83
2023-05-09T04:24:31.637Z,82.75
2023-05-09T04:26:59.655Z,80.56
2023-05-09T04:29:27.594Z,78.25
2023-05-09T04:31:55.810Z,76.92
2023-05-09T04:34:24.813Z,75.23
2023-05-09T04:36:53.114Z,74.17
2023-05-09T04:39:20.900Z,73.73
2023-05-09T04:41:49.863Z,73.53
2023-05-09T04:44:18.640Z,73.58
2023-05-09T04:46:46.880Z,73.76
2023-05-09T04:49:14.581Z,73.60
2023-05-09T04:51:42.268Z,72.94
2023-05-09T04:54:10.558Z,72.03
2023-05-09T04:56:38.172Z,71.91
2023-05-09T04:59:05.894Z,71.76
2023-05-09T05:01:33.639Z,71.16
2023-05-09T05:04:01.351Z,70.70
2023-05-09T05:06:28.976Z,70.62
2023-05-09T05:08:56.673Z,70.36
2023-05-09T05:11:24.269Z,70.53
2023-05-09T05:13:51.989Z,70.34
2023-05-09T05:16:19.645Z,70.21
2023-05-09T05:18:47.242Z,69.66
2023-05-09T05:21:16.651Z,69.25
2023-05-09T05:23:44.496Z,68.67
2023-05-09T05:26:12.354Z,67.91
2023-05-09T05:28:40.138Z,66.92
2023-05-09T05:31:07.803Z,66.41
2023-05-09T05:33:35.524Z,65.21
2023-05-09T05:36:03.384Z,63.59
2023-05-09T05:38:31.285Z,62.14
2023-05-09T05:40:59.594Z,58.42
2023-05-09T05:43:27.262Z,55.90
2023-05-09T05:45:55.064Z,53.54
2023-05-09T05:48:22.802Z,50.55
2023-05-09T05:50:50.436Z,48.32
2023-05-09T05:53:18.055Z,46.28
2023-05-09T05:55:46.888Z,46.06
2023-05-09T05:58:14.945Z,44.09
2023-05-09T06:00:42.542Z,43.38
2023-05-09T06:03:14.208Z,41.33
2023-05-09T06:05:44.361Z,38.88
2023-05-09T06:08:11.980Z,38.86
2023-05-09T06:10:40.186Z,38.36
2023-05-09T06:13:07.867Z,37.90
2023-05-09T06:15:36.666Z,37.81
2023-05-09T06:18:04.478Z,37.60
2023-05-09T06:20:32.736Z,37.62
2023-05-09T06:23:00.555Z,37.01
2023-05-09T06:25:28.385Z,34.05
2023-05-09T06:28:13.101Z,32.93
2023-05-09T06:30:40.980Z,34.07
2023-05-09T06:33:08.664Z,34.06
2023-05-09T06:35:36.350Z,33.39
2023-05-09T06:38:04.004Z,32.17
2023-05-09T06:40:31.876Z,31.52
2023-05-09T06:42:59.664Z,30.42
2023-05-09T06:45:27.437Z,29.54
2023-05-09T06:47:55.235Z,28.97
2023-05-09T06:50:23.008Z,29.84
2023-05-09T06:52:50.680Z,27.88
2023-05-09T06:55:18.576Z,27.74
2023-05-09T06:57:46.261Z,28.76
2023-05-09T07:00:14.882Z,29.95
2023-05-09T07:02:43.296Z,30.07
2023-05-09T07:05:13.063Z,29.94
2023-05-09T07:07:41.052Z,28.17
2023-05-09T07:10:11.824Z,27.84
2023-05-09T07:12:40.904Z,27.95
2023-05-09T07:15:09.517Z,29.10
2023-05-09T07:17:37.375Z,29.87
2023-05-09T07:20:06.269Z,29.11
2023-05-09T07:22:36.994Z,29.96
2023-05-09T07:25:08.718Z,27.32
2023-05-09T07:27:37.121Z,26.72
2023-05-09T07:30:06.396Z,26.70
2023-05-09T07:32:36.644Z,26.90
2023-05-09T07:35:04.637Z,26.19
2023-05-09T07:37:32.364Z,25.81
2023-05-09T07:40:00.643Z,27.01
2023-05-09T07:42:30.463Z,27.10
2023-05-09T07:44:59.259Z,26.80
2023-05-09T07:47:27.305Z,25.81
2023-05-09T07:49:55.523Z,25.69
2023-05-09T07:52:23.664Z,23.32
2023-05-09T07:54:51.349Z,24.36
2023-05-09T07:57:19.372Z,24.48
2023-05-09T07:59:47.422Z,24.46
2023-05-09T08:02:15.252Z,26.02
2023-05-09T08:04:43.883Z,25.65
2023-05-09T08:07:12.006Z,24.26
2023-05-09T08:09:39.650Z,24.08
2023-05-09T08:12:07.780Z,23.40
2023-05-09T08:14:35.729Z,24.42
2023-05-09T08:17:03.406Z,23.98
2023-05-09T08:19:31.115Z,24.40
2023-05-09T08:21:58.877Z,23.59
2023-05-09T08:24:26.696Z,23.58
2023-05-09T08:26:54.639Z,24.10
2023-05-09T08:29:22.320Z,23.87
2023-05-09T08:31:51.483Z,23.50
2023-05-09T08:34:21.115Z,24.06
2023-05-09T08:36:48.811Z,23.91
2023-05-09T08:39:16.380Z,24.08
2023-05-09T08:41:44.466Z,24.23
2023-05-09T08:44:13.201Z,23.63
2023-05-09T08:46:44.669Z,23.57
2023-05-09T08:49:17.706Z,24.15
2023-05-09T08:51:48.142Z,23.73
2023-05-09T08:54:16.527Z,24.65
2023-05-09T08:56:44.416Z,24.72
2023-05-09T08:59:13.225Z,23.77
2023-05-09T09:01:41.180Z,23.49
2023-05-09T09:04:11.644Z,23.75
2023-05-09T09:06:40.145Z,22.00
2023-05-09T09:09:09.167Z,22.92
2023-05-09T09:11:40.621Z,22.13
2023-05-09T09:14:15.483Z,22.96
2023-05-09T09:16:47.551Z,22.64
2023-05-09T09:19:18.038Z,21.15
2023-05-09T09:21:51.216Z,21.58
2023-05-09T09:24:22.668Z,22.24
2023-05-09T09:26:51.580Z,20.89
2023-05-09T09:29:23.651Z,21.68
2023-05-09T09:31:55.192Z,20.87
2023-05-09T09:34:24.129Z,20.82
2023-05-09T09:36:53.388Z,20.57
2023-05-09T09:39:22.048Z,20.81
2023-05-09T09:41:50.006Z,20.56
2023-05-09T09:44:20.102Z,21.57
2023-05-09T09:46:50.470Z,21.65
2023-05-09T09:49:23.193Z,21.96
2023-05-09T09:51:56.115Z,21.94
2023-05-09T09:54:27.582Z,22.25
2023-05-09T09:56:56.540Z,22.64
2023-05-09T09:59:26.056Z,22.75
2023-05-09T10:01:53.871Z,22.52
2023-05-09T10:04:21.941Z,21.69
2023-05-09T10:07:14.366Z,22.16
2023-05-09T10:09:43.985Z,21.17
2023-05-09T10:12:12.388Z,20.59
2023-05-09T10:14:59.195Z,20.70
2023-05-09T10:17:38.266Z,21.71
2023-05-09T10:20:21.457Z,21.16
2023-05-09T10:23:11.992Z,20.38
2023-05-09T10:25:47.418Z,20.08
2023-05-09T10:28:18.409Z,20.72
2023-05-09T10:31:10.328Z,20.24
2023-05-09T10:33:43.620Z,20.18
2023-05-09T10:36:12.201Z,20.61
2023-05-09T10:38:40.637Z,20.76
2023-05-09T10:41:10.548Z,21.86
2023-05-09T10:43:38.573Z,22.16
2023-05-09T10:46:07.094Z,22.17
2023-05-09T10:48:36.484Z,22.41
2023-05-09T10:51:05.707Z,22.81
2023-05-09T10:53:49.029Z,21.34
2023-05-09T10:56:29.949Z,21.62
2023-05-09T10:58:58.959Z,20.31
2023-05-09T11:01:37.023Z,21.14
2023-05-09T11:04:14.740Z,20.28
2023-05-09T11:06:46.526Z,20.48
2023-05-09T11:09:25.880Z,20.78
2023-05-09T11:12:06.119Z,20.81
2023-05-09T11:14:47.512Z,21.46
2023-05-09T11:20:27.778Z,20.36
2023-05-09T11:24:16.311Z,20.80
2023-05-09T11:26:47.654Z,21.43
2023-05-09T11:29:14.862Z,21.88
2023-05-09T11:32:04.326Z,22.43
2023-05-09T11:34:30.815Z,20.80
2023-05-09T11:37:09.201Z,19.90
2023-05-09T11:39:54.834Z,19.61
2023-05-09T11:42:23.510Z,19.56
2023-05-09T11:44:50.840Z,20.66
2023-05-09T11:47:17.694Z,20.54
2023-05-09T11:49:44.542Z,19.35
2023-05-09T11:52:10.837Z,19.00
2023-05-09T11:54:40.252Z,19.14
2023-05-09T11:57:07.217Z,20.34
2023-05-09T11:59:34.822Z,19.81
2023-05-09T12:02:05.414Z,19.22
2023-05-09T12:04:32.638Z,19.89
2023-05-09T12:07:01.276Z,19.84
2023-05-09T12:09:32.373Z,19.84
2023-05-09T12:12:00.246Z,18.70
2023-05-09T12:14:31.155Z,19.76
2023-05-09T12:16:58.119Z,20.62
2023-05-09T12:19:25.465Z,20.63
2023-05-09T12:21:59.258Z,19.09
2023-05-09T12:24:27.280Z,18.36
2023-05-09T12:26:57.720Z,19.63
2023-05-09T12:29:24.912Z,19.30
2023-05-09T12:31:54.935Z,19.64
2023-05-09T12:34:21.544Z,20.38
2023-05-09T12:36:50.173Z,19.68
2023-05-09T12:39:23.920Z,18.75
2023-05-09T12:42:01.225Z,18.72
2023-05-09T12:44:28.732Z,19.77
2023-05-09T12:46:57.467Z,20.41
2023-05-09T12:49:24.964Z,18.99
2023-05-09T12:51:53.047Z,18.99
2023-05-09T12:54:23.503Z,19.98
2023-05-09T12:56:56.128Z,20.29
2023-05-09T12:59:24.502Z,21.12
2023-05-09T13:01:59.142Z,21.99
2023-05-09T13:04:27.370Z,20.60
2023-05-09T13:06:56.883Z,20.55
2023-05-09T13:09:24.965Z,20.73
2023-05-09T13:11:51.882Z,21.24
2023-05-09T13:14:20.991Z,22.11
2023-05-09T13:19:33.587Z,22.60
2023-05-09T13:22:02.012Z,21.50
2023-05-09T13:24:29.868Z,20.47
2023-05-09T13:26:57.517Z,20.39
2023-05-09T13:29:25.307Z,21.78
2023-05-09T13:39:02.835Z,21.06
2023-05-09T13:41:31.585Z,21.34
2023-05-09T13:43:57.966Z,22.44
2023-05-09T13:46:24.286Z,22.82
2023-05-09T13:48:50.644Z,22.22
2023-05-09T13:51:17.010Z,21.87
2023-05-09T13:53:43.313Z,20.31
2023-05-09T13:56:09.696Z,20.21
2023-05-09T13:58:36.236Z,20.11
2023-05-09T14:01:02.672Z,20.76
2023-05-09T14:03:29.058Z,21.50
2023-05-09T14:05:55.547Z,21.95
2023-05-09T14:08:22.029Z,21.36
2023-05-09T14:10:48.316Z,21.70
2023-05-09T14:13:15.084Z,21.65
2023-05-09T14:15:41.399Z,21.37
2023-05-09T14:18:07.779Z,21.51
2023-05-09T14:20:37.083Z,22.33
2023-05-09T14:23:03.387Z,22.25
2023-05-09T14:25:29.613Z,21.45
2023-05-09T14:27:55.900Z,21.05
2023-05-09T14:30:22.368Z,21.64
2023-05-09T14:32:48.768Z,21.34
2023-05-09T14:35:15.104Z,20.51
2023-05-09T14:37:41.792Z,20.17
2023-05-09T14:40:09.038Z,20.79
2023-05-09T14:42:36.211Z,21.32
2023-05-09T14:45:02.672Z,21.94
2023-05-09T14:47:29.039Z,20.81
2023-05-09T14:49:55.401Z,20.61
2023-05-09T14:52:21.859Z,20.45
2023-05-09T14:54:48.251Z,20.66
2023-05-09T14:57:14.918Z,20.97
2023-05-09T14:59:41.705Z,20.47
2023-05-09T15:02:08.078Z,20.45
2023-05-09T15:04:34.694Z,20.11
2023-05-09T15:07:01.209Z,20.48
2023-05-09T15:09:28.660Z,20.23
2023-05-09T15:11:55.231Z,20.69
2023-05-09T15:14:21.660Z,19.98
2023-05-09T15:16:48.116Z,19.48
2023-05-09T15:19:14.519Z,19.67
2023-05-09T15:21:40.837Z,19.75
2023-05-09T15:24:07.244Z,19.61
2023-05-09T15:26:39.518Z,20.03
2023-05-09T15:29:13.890Z,20.02
2023-05-09T15:31:40.635Z,20.13
2023-05-09T15:34:06.870Z,20.15
2023-05-09T15:36:33.564Z,19.70
2023-05-09T15:39:00.736Z,18.91
2023-05-09T15:41:27.983Z,17.76
2023-05-09T15:43:54.425Z,18.69
2023-05-09T15:46:21.191Z,19.88
2023-05-09T15:48:47.520Z,20.35
2023-05-09T15:51:13.892Z,20.27
2023-05-09T15:53:40.252Z,19.22
2023-05-09T15:56:08.551Z,18.44
2023-05-09T15:58:35.228Z,19.14
2023-05-09T16:01:05.124Z,20.00
2023-05-09T16:03:32.064Z,21.64
2023-05-09T16:05:59.168Z,23.19
2023-05-09T16:08:25.681Z,23.23
2023-05-09T16:10:52.404Z,24.10
2023-05-09T16:13:18.758Z,24.71
2023-05-09T16:15:47.143Z,25.01
2023-05-09T16:18:13.419Z,26.09
2023-05-09T16:20:41.332Z,26.69
2023-05-09T16:23:07.767Z,27.34
2023-05-09T16:25:35.446Z,27.73
2023-05-09T16:28:02.234Z,27.69
2023-05-09T16:30:28.892Z,28.07
2023-05-09T16:32:55.812Z,28.42
2023-05-09T16:35:22.773Z,28.66
2023-05-09T16:37:50.222Z,28.80
2023-05-09T16:40:18.188Z,29.21
2023-05-09T16:42:44.647Z,29.39
2023-05-09T16:45:11.015Z,29.44
2023-05-09T16:47:37.457Z,29.49
2023-05-09T16:50:04.130Z,29.46
2023-05-09T16:52:31.104Z,29.52
2023-05-09T16:54:58.679Z,29.74
2023-05-09T16:57:24.990Z,30.01
2023-05-09T16:59:53.165Z,30.05
2023-05-09T17:02:19.765Z,30.02
2023-05-09T17:04:46.564Z,30.14
2023-05-09T17:07:17.963Z,30.27
2023-05-09T17:09:52.111Z,30.42
2023-05-09T17:12:23.430Z,30.52
2023-05-09T17:14:50.585Z,30.21
2023-05-09T17:17:16.983Z,30.44
2023-05-09T17:19:43.442Z,30.92
2023-05-09T17:22:09.694Z,31.01
2023-05-09T17:24:36.102Z,31.30
2023-05-09T17:27:03.913Z,31.30
2023-05-09T17:29:30.406Z,31.68
2023-05-09T17:32:01.223Z,31.69
2023-05-09T17:34:28.029Z,31.74
2023-05-09T17:36:54.687Z,32.13
2023-05-09T17:39:22.540Z,31.89
2023-05-09T17:41:48.845Z,32.12
2023-05-09T17:44:15.170Z,32.47
2023-05-09T17:46:43.351Z,33.05
2023-05-09T17:49:10.610Z,32.86
2023-05-09T17:51:36.870Z,33.06
2023-05-09T17:54:04.764Z,33.19
2023-05-09T17:56:31.219Z,33.42
2023-05-09T17:58:58.673Z,33.85
2023-05-09T18:01:25.436Z,34.21
2023-05-09T18:03:52.153Z,34.37
2023-05-09T18:06:18.827Z,34.51
2023-05-09T18:08:45.161Z,34.82
2023-05-09T18:11:11.779Z,35.11
2023-05-09T18:13:38.108Z,35.35
2023-05-09T18:16:04.632Z,35.50
2023-05-09T18:18:31.780Z,35.70
2023-05-09T18:20:58.573Z,35.98
2023-05-09T18:23:25.374Z,36.48
2023-05-09T18:25:53.298Z,36.68
2023-05-09T18:28:26.897Z,36.95
2023-05-09T18:30:54.915Z,37.08
2023-05-09T18:33:25.589Z,37.45
2023-05-09T18:35:53.782Z,37.61
2023-05-09T18:38:20.559Z,37.93
2023-05-09T18:40:47.674Z,38.09
2023-05-09T18:43:15.800Z,38.23
2023-05-09T18:45:44.368Z,38.70
2023-05-09T18:48:10.723Z,39.00
2023-05-09T18:50:36.967Z,39.10
2023-05-09T18:53:03.442Z,39.46
2023-05-09T18:55:29.714Z,39.74
2023-05-09T18:57:56.146Z,39.83
2023-05-09T19:00:22.806Z,39.96
2023-05-09T19:02:50.149Z,40.26
2023-05-09T19:05:16.652Z,40.44
2023-05-09T19:07:42.885Z,40.78
2023-05-09T19:10:09.731Z,41.12
2023-05-09T19:12:36.142Z,41.38
2023-05-09T19:15:02.800Z,41.57
2023-05-09T19:17:29.209Z,41.76
2023-05-09T19:19:55.467Z,42.05
2023-05-09T19:22:22.093Z,42.16
2023-05-09T19:24:50.760Z,42.21
2023-05-09T19:27:18.652Z,42.51
2023-05-09T19:29:44.970Z,42.82
2023-05-09T19:32:11.200Z,43.21
2023-05-09T19:34:37.581Z,43.16
2023-05-09T19:37:03.910Z,43.41
2023-05-09T19:39:30.127Z,43.66
2023-05-09T19:41:58.296Z,43.91
2023-05-09T19:44:25.987Z,44.15
2023-05-09T19:46:52.352Z,44.32
2023-05-09T19:49:18.716Z,44.31
2023-05-09T19:51:44.977Z,44.28
2023-05-09T19:54:11.613Z,44.63
2023-05-09T19:56:37.891Z,44.77
2023-05-09T19:59:04.320Z,44.75
2023-05-09T20:01:30.533Z,44.99
2023-05-09T20:03:57.113Z,45.17
2023-05-09T20:06:24.806Z,45.25
2023-05-09T20:08:51.574Z,45.33
2023-05-09T20:11:18.152Z,45.33
2023-05-09T20:13:44.423Z,45.56
2023-05-09T20:16:10.767Z,45.76
2023-05-09T20:18:37.071Z,45.95
2023-05-09T20:24:05.077Z,46.28
2023-05-09T20:26:31.361Z,46.41
2023-05-09T20:29:04.149Z,46.65
2023-05-09T20:31:31.401Z,46.61
2023-05-09T20:33:58.184Z,46.69
2023-05-09T20:36:25.909Z,46.94
2023-05-09T20:38:52.190Z,46.95
2023-05-09T20:41:18.445Z,47.34
2023-05-09T20:43:45.078Z,47.65
2023-05-09T20:46:13.337Z,47.76
2023-05-09T20:48:39.638Z,47.71
2023-05-09T20:51:05.945Z,48.02
2023-05-09T20:53:34.165Z,48.15
2023-05-09T20:56:01.347Z,47.91
2023-05-09T20:58:33.651Z,48.01
2023-05-09T21:01:00.171Z,48.05
2023-05-09T21:03:26.734Z,48.11
2023-05-09T21:05:53.670Z,48.32
2023-05-09T21:08:20.349Z,48.51
2023-05-09T21:10:52.030Z,48.76
2023-05-09T21:13:18.318Z,48.70
2023-05-09T21:15:48.977Z,48.89
2023-05-09T21:18:15.230Z,49.09
2023-05-09T21:20:41.570Z,49.41
2023-05-09T21:23:07.834Z,49.24
2023-05-09T21:25:34.070Z,49.44
2023-05-09T21:28:00.420Z,49.56
2023-05-09T21:30:26.828Z,49.84
2023-05-09T21:32:53.177Z,49.94
2023-05-09T21:35:19.471Z,49.93
2023-05-09T21:37:45.955Z,50.16
2023-05-09T21:40:12.564Z,50.13
2023-05-09T21:42:40.476Z,50.24
2023-05-09T21:45:07.321Z,50.47
2023-05-09T21:47:33.693Z,50.67
2023-05-09T21:50:00.275Z,50.73
2023-05-09T21:52:26.539Z,50.88
2023-05-09T21:54:52.833Z,50.89
2023-05-09T21:57:19.132Z,51.14
2023-05-09T21:59:45.480Z,51.15
2023-05-09T22:02:11.831Z,51.28
2023-05-09T22:04:39.537Z,51.25
2023-05-09T22:07:05.922Z,51.54
2023-05-09T22:09:32.520Z,51.84
2023-05-09T22:11:58.825Z,51.88
2023-05-09T22:14:25.288Z,52.05
2023-05-09T22:16:51.604Z,51.93
2023-05-09T22:19:18.073Z,52.26
2023-05-09T22:21:44.336Z,52.38
2023-05-09T22:24:10.817Z,52.43
2023-05-09T22:26:37.103Z,52.76
2023-05-09T22:29:03.436Z,53.36
2023-05-09T22:31:29.842Z,53.30
2023-05-09T22:33:56.146Z,53.73
2023-05-09T22:36:22.409Z,54.43
2023-05-09T22:38:48.605Z,54.20
2023-05-09T22:41:14.965Z,54.27
2023-05-09T22:43:41.247Z,55.23
2023-05-09T22:46:08.128Z,55.30
2023-05-09T22:48:34.477Z,55.01
2023-05-09T22:51:01.387Z,54.57
2023-05-09T22:53:27.587Z,55.01
2023-05-09T22:55:54.213Z,55.70
2023-05-09T22:58:20.702Z,55.07
2023-05-09T23:00:47.046Z,54.90
2023-05-09T23:03:13.378Z,55.09
2023-05-09T23:05:39.732Z,54.82
2023-05-09T23:08:05.982Z,55.03
2023-05-09T23:10:32.215Z,55.53
2023-05-09T23:12:58.505Z,55.41
2023-05-09T23:15:24.877Z,55.84
2023-05-09T23:17:51.375Z,55.88
2023-05-09T23:20:17.952Z,55.44
2023-05-09T23:22:44.465Z,55.97
2023-05-09T23:25:10.815Z,56.16
2023-05-09T23:27:39.840Z,55.90
2023-05-09T23:30:09.931Z,55.94
2023-05-09T23:32:37.110Z,56.48
2023-05-09T23:35:04.204Z,56.34
2023-05-09T23:37:30.661Z,56.50
2023-05-09T23:39:57.683Z,57.57
2023-05-09T23:42:23.997Z,57.35
2023-05-09T23:44:50.198Z,57.23
2023-05-09T23:47:16.471Z,56.95
2023-05-09T23:49:42.752Z,56.49
2023-05-09T23:52:09.335Z,56.27
2023-05-09T23:54:35.568Z,56.49
2023-05-09T23:57:01.827Z,56.21
2023-05-09T23:59:28.009Z,56.37
